Abiquiu, New Mexico
Current Conditions -  °F | °C
As of 11:15 AM on Monday 26 Jan 2015 (Local Time) from KLAM Reporting Station
Clear Clear  
Wind Chill: 45°   Ceiling: Unl
Heat Index: 48°   Visibility: 10mi
Dew Point: 22°   Wind: 6mph
Humidity: 36%   Direction: 40°NE
Pressure: 30.41"   Gusts: 10mph
Location:  36.21°N, 106.32°W
Report Text: KLAM 261815Z AUTO 04005G09KT 10SM CLR 09/M06 A3041 RMK AO2 T00881057
Loading
Personal Weather Stations






























Interactive Weather Map New forecast layout! Learn more

10-Day Weather Forecast

Advertisements
Track Severe Weather on mobile